Relevés horaires Semmerzake (Belgique)


Relevés horaires à Semmerzake - Lundi 31 Mai 2021
Heure UTC1 Température [°C] Vent [km/h] Hum. [%] Pres.4 [hPa] Visi. [Km] Nébu. [octa] Préc.5 [mm] Cond.
2m. Res. Ros. Dir.2 Vit. Moy. Raf.3
23:00 17.3 17.3 8.8 E 5.6 -- 9.3 57 1018(-0.1/3h) 20 -- -- --
22:00 17.1 17.1 8.6 NNO 3.7 -- 5.6 57 1018.1(0.0/3h) 20 -- -- --
21:00 18.9 18.9 7.9 E 3.7 -- 7.4 49 1018.2(-0.1/3h) 20 -- -- --
20:00 19.6 19.6 7.8 NNO 1.9 -- 5.6 46 1018.1(-0.5/3h) 20 -- -- --
19:00 20.9 20.9 8.3 ENE 3.7 -- 7.4 44 1018(-0.9/3h) 19 -- -- --
18:00 21.9 21.9 8.4 ESE 3.7 -- 14.8 42 1018.2(-1.2/3h) 20 -- -- --
17:00 22.7 22.7 9.3 E 3.7 -- 11.1 42 1018.5(-1.6/3h) 20 -- -- --
16:00 22.7 22.7 9.3 E 5.6 -- 13.0 42 1018.8(-1.8/3h) 19 -- -- --
15:00 22.9 22.9 9.0 E 5.6 -- 14.8 41 1019.5(-1.7/3h) 20 -- -- --
14:00 22.6 22.6 9.3 ESE 5.6 -- 11.1 43 1020.2(-1.5/3h) 20 -- -- --
13:00 21.9 21.9 9.7 ENE 5.6 -- 14.8 46 1020.7(-1.4/3h) 20 -- -- --
12:00 21.3 21.3 7.7 ENE 7.4 -- 14.8 41 1021.2(-1.2/3h) 20 -- -- --
11:00 21.2 21.2 8.7 E 7.4 -- 13.0 45 1021.7(-0.8/3h) 20 -- -- --
10:00 20.7 20.7 9.1 E 3.7 -- 9.3 47 1022.2(-0.7/3h) 17 -- -- --
09:00 19.7 19.7 9.7 E 3.7 -- 7.4 52 1022.5(-0.4/3h) 17 -- -- --
08:00 18.7 18.7 10.6 NNO 1.9 -- 7.4 59 1022.7(-0.3/3h) 19 -- -- --
07:00 16.7 16.7 10.3 NNO 1.9 -- 5.6 66 1023(0.2/3h) 19 -- -- --
06:00 14.1 14.1 9.0 E 3.7 -- 7.4 71 1023(0.0/3h) 20 -- -- --
05:00 12.7 12.7 8.1 NNO 1.9 -- 7.4 74 1023.1(0.0/3h) 20 -- -- --
04:00 11.3 11.3 7.8 ENE 3.7 -- 5.6 79 1022.7(-0.5/3h) 18 -- -- --
03:00 10.9 10.9 7.4 NNO 1.9 -- 3.7 79 1023(-0.5/3h) 19 -- -- --
02:00 12.2 12.2 7.7 NNO 1.9 -- 3.7 74 1023.1(-0.5/3h) 20 -- -- --
01:00 11.8 11.8 7.6 NNO 1.9 -- 3.7 75 1023.2(-0.2/3h) 20 -- -- --
00:00 14.5 14.5 7.4 NNO 1.9 -- 7.4 62 1023.5(-0.2/3h) 20 -- -- --

1 Coordinated Universal Time. Actuellement il est 21:00 locale et 19:00 UTC.

2 Le vent souffle depuis la direction indiquée vers la direction oposée.

3 Les rafales max. sont disponible 40 min après l'heure du relevé.

4 Pour les stations d'altitude (plus de 600m) le géopotentiel du niveau le plus proche de la pression obligatoire est indiqué.

5 Les stations disposant d'un diffuseur peuvent indiquer "trace". Cela signifie que des précipitations ont touchés le sol mais que la quantité est inférieure à 0.1 mm.

Récapitulatif de la journée
Température [°C] Vent [km/h] Ensoleillement4 [h] Precipitations totale5 [mm] Pression [Hpa]
Min1 Max.2 Moy.3 Max. Min Max.
10.1 23.4 0 14.8 0 h 0 min 0 1018.0 1023.5

1 Température minimale relevée entre 18:00 UTC la veille et 18:00 UTC le jour donné.

2 Température maximale relevée entre 06:00 UTC le jour donné et 06:00 UTC le lendemain.

3 Vent moyen de la journée basé sur les relevés horaires.

4 Ensoleillement en heures relevé entre 06:00 UTC la veille et 06:00 UTC le jour donné.

5 Précipitations totales tombées entre 06:00 UTC la jour donné et 06:00 UTC le lendemain.

Graphiques horaires